Aérodrome :
LOGIN :

S'inscrire | Disclaimer

   EN    FR    IT 

 










Légende :    VFR   VFR Marginal   IFR   IFR Intensif   IFR Très Intensif
Visi : 
Plafond : 
>= 8 km
>= 3000ft
5 à 8 km
1000 à 3000 ft
1500m à 5 km
500 à 1000 ft
800 à 1500m
200 à 500 ft
< 800m
< 200 ft
Symboles :   Orages  Brouillard  Fortes neiges  Fortes précipitations  Vent > 20 kt
SIGMETs :   Divers  Orages  Givrage  Turbulence  Onde Orograph.  Cendres Volcan.






- Altitude de l'aérodrome : 312 ft
- Code IATA : SAW


LTFJ - Sabiha Gokcen

DERNIER METAR :
  • 060850Z 03010KT 9999 SCT030 29/20 Q1011 NOSIG RMK RWY24 04011KT 010V080

METARs EXPIRÉS :
  • 060820Z 05007KT 010V100 9999 SCT030 29/20 Q1011 NOSIG RMK RWY24 03010KT 350V090
  • 060750Z 04008KT 010V080 9999 SCT030 29/20 Q1011 NOSIG RMK RWY24 05011KT 010V100
  • 060720Z 05011KT 9999 SCT025 27/20 Q1011 NOSIG RMK RWY24 04010KT
  • 060650Z 04009KT 010V070 9999 SCT025 27/21 Q1011 NOSIG RMK RWY24 05010KT 020V090
  • 060620Z 06009KT 9999 SCT025 26/21 Q1011 NOSIG RMK RWY24 04007KT 010V080

TAF TAF LTFJ
Valide du 06 à 06h jusqu'au 07 à 06h UTC


060440Z 0606/0706 04008KT 9999 FEW035
BECMG 0606/0609 03018KT CAVOK
PROB40
TEMPO 0611/0615 03020G33KT FEW035
BECMG 0616/0619 04007KT



MET'MAP, la Météo Aéronautique d'un coup d'oeil ! - Copyright ORBIFLY Décembre 2007 - Disclaimer

ORBIFLY MET'MAP TEAM :

Programmation & Développement : Alexandra Zaïnal
Sur une idée originale de : Baudouin d'Aumeries
Assistance à la programmation : Marc-Olivier Méhu
Soutien technique & logistique : Manuel Goepfert

Contact : metmap@orbifly.com




SOURCES & CREDITS :

   NOAA